createdAt,value
2023-03-12T00:01:29.980Z,96782.19
2023-03-12T00:03:59.427Z,96782.95
2023-03-12T00:06:27.938Z,96787.01
2023-03-12T00:08:56.620Z,96788.83
2023-03-12T00:11:25.063Z,96793.22
2023-03-12T00:13:56.344Z,96800.05
2023-03-12T00:16:25.671Z,96800.50
2023-03-12T00:18:55.667Z,96793.67
2023-03-12T00:21:25.078Z,96805.95
2023-03-12T00:23:53.848Z,96810.65
2023-03-12T00:26:23.071Z,96812.00
2023-03-12T00:28:52.665Z,96811.06
2023-03-12T00:31:27.768Z,96811.02
2023-03-12T00:33:56.962Z,96817.16
2023-03-12T00:36:27.124Z,96818.55
2023-03-12T00:38:57.454Z,96820.83
2023-03-12T00:41:27.227Z,96826.91
2023-03-12T00:43:56.688Z,96835.17
2023-03-12T00:46:26.101Z,96839.10
2023-03-12T00:48:54.728Z,96841.65
2023-03-12T00:51:23.225Z,96846.03
2023-03-12T00:53:51.786Z,96848.86
2023-03-12T00:56:20.481Z,96848.83
2023-03-12T00:58:48.948Z,96850.83
2023-03-12T01:01:17.831Z,96843.72
2023-03-12T01:03:46.772Z,96850.39
2023-03-12T01:06:15.098Z,96848.17
2023-03-12T01:08:43.894Z,96851.09
2023-03-12T01:11:18.642Z,96852.90
2023-03-12T01:13:46.848Z,96861.08
2023-03-12T01:16:15.190Z,96865.04
2023-03-12T01:18:43.704Z,96869.91
2023-03-12T01:21:12.163Z,96871.48
2023-03-12T01:23:40.518Z,96871.29
2023-03-12T01:26:08.991Z,96882.13
2023-03-12T01:28:37.474Z,96883.63
2023-03-12T01:31:11.305Z,96875.60
2023-03-12T01:33:40.387Z,96880.52
2023-03-12T01:36:18.707Z,96888.52
2023-03-12T01:38:47.254Z,96886.46
2023-03-12T01:41:15.705Z,96890.23
2023-03-12T01:43:43.923Z,96893.68
2023-03-12T01:46:38.731Z,96892.60
2023-03-12T01:49:27.342Z,96899.48
2023-03-12T01:52:09.294Z,96903.13
2023-03-12T01:55:10.516Z,96911.98
2023-03-12T01:57:49.020Z,96921.72
2023-03-12T02:00:25.485Z,96930.30
2023-03-12T02:02:59.993Z,96936.95
2023-03-12T02:06:00.445Z,96944.15
2023-03-12T02:08:28.933Z,96941.52
2023-03-12T02:10:57.399Z,96946.63
2023-03-12T02:13:25.994Z,96943.16
2023-03-12T02:15:54.961Z,96953.26
2023-03-12T02:18:24.047Z,96950.64
2023-03-12T02:21:09.536Z,96954.77
2023-03-12T02:24:07.056Z,96963.42
2023-03-12T02:26:37.563Z,96968.48
2023-03-12T02:29:07.415Z,96975.13
2023-03-12T02:31:40.990Z,96977.54
2023-03-12T02:34:10.125Z,96977.38
2023-03-12T02:36:38.708Z,96982.38
2023-03-12T02:39:07.298Z,96985.02
2023-03-12T02:41:45.704Z,96988.84
2023-03-12T02:44:27.460Z,96988.08
2023-03-12T02:46:58.623Z,96989.14
2023-03-12T02:49:31.825Z,96987.05
2023-03-12T02:52:01.436Z,96994.82
2023-03-12T02:54:30.827Z,96994.83
2023-03-12T02:56:59.308Z,96999.73
2023-03-12T02:59:28.213Z,97005.45
2023-03-12T03:02:00.888Z,97012.91
2023-03-12T03:04:31.325Z,97021.02
2023-03-12T03:07:00.000Z,97017.23
2023-03-12T03:09:28.271Z,97026.05
2023-03-12T03:11:56.754Z,97030.89
2023-03-12T03:14:25.457Z,97036.98
2023-03-12T03:16:54.309Z,97042.58
2023-03-12T03:19:24.314Z,97046.45
2023-03-12T03:21:52.721Z,97049.11
2023-03-12T03:24:21.502Z,97054.73
2023-03-12T03:26:49.874Z,97063.45
2023-03-12T03:29:18.217Z,97071.11
2023-03-12T03:31:46.653Z,97082.91
2023-03-12T03:34:15.091Z,97081.64
2023-03-12T03:36:43.390Z,97086.92
2023-03-12T03:39:14.545Z,97089.45
2023-03-12T03:41:43.099Z,97095.14
2023-03-12T03:44:11.390Z,97101.44
2023-03-12T03:46:40.641Z,97098.36
2023-03-12T03:49:11.328Z,97101.38
2023-03-12T03:51:42.800Z,97108.70
2023-03-12T03:54:12.882Z,97106.08
2023-03-12T03:56:42.000Z,97116.06
2023-03-12T03:59:10.982Z,97116.22
2023-03-12T04:01:40.185Z,97118.34
2023-03-12T04:04:08.574Z,97129.78
2023-03-12T04:06:37.537Z,97131.87
2023-03-12T04:09:06.015Z,97142.55
2023-03-12T04:11:35.073Z,97147.79
2023-03-12T04:14:03.998Z,97155.71
2023-03-12T04:16:33.723Z,97155.34
2023-03-12T04:19:02.510Z,97152.77
2023-03-12T04:21:31.051Z,97159.61
2023-03-12T04:23:59.409Z,97165.30
2023-03-12T04:26:30.967Z,97166.29
2023-03-12T04:29:01.141Z,97161.85
2023-03-12T04:31:29.776Z,97164.30
2023-03-12T04:33:58.615Z,97164.14
2023-03-12T04:36:27.216Z,97171.21
2023-03-12T04:38:56.594Z,97177.64
2023-03-12T04:41:28.640Z,97178.50
2023-03-12T04:44:02.550Z,97178.38
2023-03-12T04:46:31.852Z,97182.38
2023-03-12T04:49:02.804Z,97192.14
2023-03-12T04:51:32.910Z,97202.36
2023-03-12T04:54:03.238Z,97204.64
2023-03-12T04:56:31.897Z,97213.74
2023-03-12T04:59:00.610Z,97215.65
2023-03-12T05:01:31.860Z,97217.63
2023-03-12T05:04:00.375Z,97220.75
2023-03-12T05:06:29.553Z,97220.23
2023-03-12T05:08:58.060Z,97232.65
2023-03-12T05:11:26.347Z,97240.92
2023-03-12T05:13:54.666Z,97238.31
2023-03-12T05:16:24.581Z,97241.00
2023-03-12T05:18:53.160Z,97249.80
2023-03-12T05:21:22.261Z,97257.42
2023-03-12T05:23:52.951Z,97258.30
2023-03-12T05:26:23.113Z,97251.89
2023-03-12T05:28:52.595Z,97257.30
2023-03-12T05:31:22.164Z,97257.70
2023-03-12T05:33:53.006Z,97264.64
2023-03-12T05:36:22.352Z,97267.57
2023-03-12T05:38:51.030Z,97270.42
2023-03-12T05:41:22.065Z,97274.54
2023-03-12T05:43:51.911Z,97279.20
2023-03-12T05:46:21.132Z,97281.95
2023-03-12T05:48:49.862Z,97288.89
2023-03-12T05:51:18.544Z,97290.36
2023-03-12T05:53:47.323Z,97295.80
2023-03-12T05:56:18.043Z,97300.84
2023-03-12T05:58:49.630Z,97310.94
2023-03-12T06:01:21.702Z,97304.89
2023-03-12T06:03:50.410Z,97304.82
2023-03-12T06:06:19.737Z,97309.28
2023-03-12T06:08:48.609Z,97304.64
2023-03-12T06:11:17.378Z,97312.99
2023-03-12T06:13:45.710Z,97316.90
2023-03-12T06:16:23.365Z,97325.83
2023-03-12T06:18:59.971Z,97327.66
2023-03-12T06:21:31.267Z,97327.44
2023-03-12T06:24:00.514Z,97325.32
2023-03-12T06:26:38.593Z,97329.61
2023-03-12T06:29:06.800Z,97338.77
2023-03-12T06:31:37.307Z,97348.90
2023-03-12T06:34:07.057Z,97353.76
2023-03-12T06:36:35.363Z,97357.87
2023-03-12T06:39:06.510Z,97365.06
2023-03-12T06:41:34.926Z,97367.97
2023-03-12T06:44:06.386Z,97374.32
2023-03-12T06:46:35.397Z,97378.88
2023-03-12T06:49:03.996Z,97385.78
2023-03-12T06:51:32.071Z,97380.12
2023-03-12T06:54:02.678Z,97389.33
2023-03-12T06:56:31.585Z,97393.89
2023-03-12T06:58:59.633Z,97400.44
2023-03-12T07:01:27.914Z,97413.20
2023-03-12T07:03:56.196Z,97424.40
2023-03-12T07:06:25.280Z,97431.69
2023-03-12T07:08:53.646Z,97438.14
2023-03-12T07:11:21.814Z,97436.70
2023-03-12T07:13:50.126Z,97434.08
2023-03-12T07:16:18.393Z,97445.30
2023-03-12T07:18:46.638Z,97452.98
2023-03-12T07:21:22.669Z,97443.63
2023-03-12T07:23:51.363Z,97451.80
2023-03-12T07:26:20.256Z,97452.77
2023-03-12T07:28:48.544Z,97454.30
2023-03-12T07:31:17.162Z,97459.67
2023-03-12T07:33:45.525Z,97465.86
2023-03-12T07:36:14.426Z,97466.42
2023-03-12T07:38:42.773Z,97481.98
2023-03-12T07:41:11.211Z,97473.46
2023-03-12T07:43:39.524Z,97475.73
2023-03-12T07:46:07.876Z,97476.81
2023-03-12T07:48:35.969Z,97472.21
2023-03-12T07:51:04.716Z,97476.56
2023-03-12T07:53:33.371Z,97484.89
2023-03-12T07:56:01.532Z,97483.64
2023-03-12T07:58:30.008Z,97481.80
2023-03-12T08:00:58.127Z,97481.84
2023-03-12T08:03:26.747Z,97484.37
2023-03-12T08:06:00.497Z,97483.63
2023-03-12T08:08:29.588Z,97477.30
2023-03-12T08:10:59.418Z,97484.73
2023-03-12T08:13:28.211Z,97477.95
2023-03-12T08:15:56.557Z,97488.59
2023-03-12T08:18:24.981Z,97490.79
2023-03-12T08:20:54.597Z,97490.17
2023-03-12T08:23:23.313Z,97492.89
2023-03-12T08:25:51.779Z,97497.66
2023-03-12T08:28:21.862Z,97497.85
2023-03-12T08:30:53.121Z,97496.71
2023-03-12T08:33:22.428Z,97507.83
2023-03-12T08:35:50.986Z,97524.37
2023-03-12T08:38:19.941Z,97531.08
2023-03-12T08:40:57.298Z,97526.79
2023-03-12T08:43:29.036Z,97521.21
2023-03-12T08:45:59.662Z,97529.05
2023-03-12T08:48:29.839Z,97530.23
2023-03-12T08:50:59.950Z,97536.08
2023-03-12T08:53:28.275Z,97553.44
2023-03-12T08:55:57.595Z,97565.23
2023-03-12T08:58:26.584Z,97564.94
2023-03-12T09:00:55.549Z,97577.23
2023-03-12T09:03:25.269Z,97583.55
2023-03-12T09:06:13.208Z,97578.59
2023-03-12T09:08:42.092Z,97573.89
2023-03-12T09:11:12.478Z,97578.88
2023-03-12T09:14:03.901Z,97595.02
2023-03-12T09:16:30.716Z,97591.75
2023-03-12T09:18:58.889Z,97592.98
2023-03-12T09:21:27.144Z,97594.80
2023-03-12T09:23:55.324Z,97592.05
2023-03-12T09:26:24.302Z,97587.74
2023-03-12T09:28:52.499Z,97593.36
2023-03-12T09:31:21.118Z,97586.13
2023-03-12T09:33:49.431Z,97594.91
2023-03-12T09:36:17.908Z,97589.94
2023-03-12T09:38:45.999Z,97591.56
2023-03-12T09:41:26.807Z,97593.34
2023-03-12T09:44:10.300Z,97587.09
2023-03-12T09:46:44.903Z,97588.23
2023-03-12T09:49:23.257Z,97583.38
2023-03-12T09:51:55.813Z,97578.86
2023-03-12T09:54:54.966Z,97583.59
2023-03-12T09:57:25.211Z,97589.95
2023-03-12T09:59:53.660Z,97587.81
2023-03-12T10:02:39.842Z,97597.41
2023-03-12T10:05:32.433Z,97600.72
2023-03-12T10:08:24.883Z,97594.42
2023-03-12T10:11:07.835Z,97600.78
2023-03-12T10:13:45.085Z,97605.06
2023-03-12T10:16:39.162Z,97605.08
2023-03-12T10:19:30.326Z,97608.45
2023-03-12T10:22:16.742Z,97612.36
2023-03-12T10:25:00.181Z,97610.92
2023-03-12T10:27:32.787Z,97616.13
2023-03-12T10:30:02.449Z,97613.58
2023-03-12T10:32:41.129Z,97611.61
2023-03-12T10:35:32.926Z,97615.34
2023-03-12T10:38:03.935Z,97610.84
2023-03-12T10:40:35.674Z,97607.25
2023-03-12T10:43:06.998Z,97599.90
2023-03-12T10:45:52.496Z,97607.79
2023-03-12T10:48:23.692Z,97611.60
2023-03-12T10:51:06.993Z,97615.39
2023-03-12T10:53:36.248Z,97610.82
2023-03-12T10:56:07.707Z,97608.10
2023-03-12T10:58:41.993Z,97598.70
2023-03-12T11:01:16.007Z,97606.39
2023-03-12T11:03:44.493Z,97600.14
2023-03-12T11:06:23.464Z,97601.85
2023-03-12T11:09:19.021Z,97600.06
2023-03-12T11:11:49.084Z,97602.67
2023-03-12T11:14:22.022Z,97606.63
2023-03-12T11:16:51.138Z,97605.20
2023-03-12T11:19:35.187Z,97595.49
2023-03-12T11:22:08.135Z,97597.95
2023-03-12T11:24:36.419Z,97595.93
2023-03-12T11:27:26.284Z,97597.30
2023-03-12T11:29:54.826Z,97601.02
2023-03-12T11:32:34.708Z,97602.52
2023-03-12T11:35:04.656Z,97599.99
2023-03-12T11:37:41.931Z,97598.23
2023-03-12T11:40:16.982Z,97598.15
2023-03-12T11:43:14.426Z,97600.65
2023-03-12T11:46:17.365Z,97603.76
2023-03-12T11:49:13.133Z,97602.55
2023-03-12T11:51:47.232Z,97602.85
2023-03-12T11:54:28.518Z,97600.40
2023-03-12T11:57:01.662Z,97607.48
2023-03-12T11:59:48.839Z,97604.00
2023-03-12T12:02:54.512Z,97605.26
2023-03-12T12:05:44.766Z,97595.77
2023-03-12T12:08:24.926Z,97595.50
2023-03-12T12:11:20.031Z,97596.70
2023-03-12T12:14:06.954Z,97600.74
2023-03-12T12:16:54.250Z,97595.94
2023-03-12T12:19:40.749Z,97603.06
2023-03-12T12:22:36.368Z,97607.16
2023-03-12T12:25:36.842Z,97615.04
2023-03-12T12:28:24.566Z,97608.80
2023-03-12T12:30:55.377Z,97611.05
2023-03-12T12:33:45.154Z,97606.82
2023-03-12T12:36:14.700Z,97611.95
2023-03-12T12:38:47.173Z,97611.91
2023-03-12T12:41:20.741Z,97615.41
2023-03-12T12:43:51.469Z,97618.23
2023-03-12T12:46:36.700Z,97620.77
2023-03-12T12:49:12.359Z,97624.64
2023-03-12T12:51:45.814Z,97626.71
2023-03-12T12:54:23.970Z,97626.54
2023-03-12T12:56:54.938Z,97627.41
2023-03-12T12:59:35.124Z,97622.92
2023-03-12T13:02:05.340Z,97622.36
2023-03-12T13:04:39.688Z,97627.77
2023-03-12T13:07:13.891Z,97628.35
2023-03-12T13:09:47.973Z,97629.59
2023-03-12T13:12:18.972Z,97630.09
2023-03-12T13:14:49.316Z,97634.16
2023-03-12T13:17:33.933Z,97635.94
2023-03-12T13:20:06.069Z,97637.79
2023-03-12T13:23:20.609Z,97643.58
2023-03-12T13:26:15.890Z,97645.21
2023-03-12T13:28:56.729Z,97644.14
2023-03-12T13:31:30.974Z,97647.02
2023-03-12T13:34:28.340Z,97649.64
2023-03-12T13:37:02.257Z,97656.45
2023-03-12T13:39:30.570Z,97661.02
2023-03-12T13:42:01.019Z,97661.38
2023-03-12T13:44:29.132Z,97660.14
2023-03-12T13:47:12.084Z,97665.30
2023-03-12T13:50:00.002Z,97665.66
2023-03-12T13:52:34.229Z,97663.48
2023-03-12T13:55:14.570Z,97664.20
2023-03-12T13:57:47.870Z,97671.14
2023-03-12T14:00:16.570Z,97673.70
2023-03-12T14:02:53.560Z,97678.48
2023-03-12T14:05:22.384Z,97680.73
2023-03-12T14:08:15.467Z,97680.90
2023-03-12T14:11:16.501Z,97684.61
2023-03-12T14:14:03.373Z,97682.80
2023-03-12T14:16:51.980Z,97682.12
2023-03-12T14:19:25.372Z,97683.27
2023-03-12T14:21:56.124Z,97681.98
2023-03-12T14:24:49.152Z,97683.73
2023-03-12T14:27:26.976Z,97689.15
2023-03-12T14:30:07.523Z,97687.14
2023-03-12T14:32:39.517Z,97692.09
2023-03-12T14:35:25.976Z,97692.20
2023-03-12T14:38:03.882Z,97694.90
2023-03-12T14:40:58.123Z,97699.75
2023-03-12T14:43:29.013Z,97698.36
2023-03-12T14:46:03.686Z,97699.23
2023-03-12T14:48:37.145Z,97698.67
2023-03-12T14:51:07.564Z,97700.17
2023-03-12T14:53:39.851Z,97703.95
2023-03-12T14:56:14.063Z,97703.45
2023-03-12T14:58:47.840Z,97704.96
2023-03-12T15:01:21.181Z,97706.90
2023-03-12T15:04:02.733Z,97709.67
2023-03-12T15:06:40.441Z,97707.48
2023-03-12T15:09:18.715Z,97708.20
2023-03-12T15:12:04.934Z,97711.38
2023-03-12T15:14:39.248Z,97712.62
2023-03-12T15:17:08.752Z,97710.84
2023-03-12T15:19:40.372Z,97709.92
2023-03-12T15:22:19.150Z,97714.27
2023-03-12T15:24:47.550Z,97713.04
2023-03-12T15:27:20.233Z,97718.73
2023-03-12T15:29:48.452Z,97721.69
2023-03-12T15:32:20.959Z,97723.95
2023-03-12T15:34:49.925Z,97728.44
2023-03-12T15:37:41.413Z,97730.41
2023-03-12T15:40:25.648Z,97735.94
2023-03-12T15:42:57.544Z,97736.59
2023-03-12T15:45:37.577Z,97733.96
2023-03-12T15:48:21.227Z,97737.45
2023-03-12T15:50:49.506Z,97741.28
2023-03-12T15:53:17.471Z,97744.89
2023-03-12T15:56:02.384Z,97744.73
2023-03-12T15:58:33.951Z,97748.66
2023-03-12T16:01:17.084Z,97751.80
2023-03-12T16:03:46.034Z,97753.52
2023-03-12T16:06:20.566Z,97757.77
2023-03-12T16:09:00.182Z,97762.19
2023-03-12T16:11:31.872Z,97758.29
2023-03-12T16:14:06.926Z,97763.72
2023-03-12T16:16:35.145Z,97771.26
2023-03-12T16:19:04.176Z,97777.36
2023-03-12T16:21:32.241Z,97785.12
2023-03-12T16:24:00.262Z,97784.81
2023-03-12T16:26:28.657Z,97791.33
2023-03-12T16:28:58.244Z,97792.15
2023-03-12T16:31:26.464Z,97794.70
2023-03-12T16:33:54.654Z,97799.46
2023-03-12T16:36:22.954Z,97805.16
2023-03-12T16:38:51.270Z,97810.20
2023-03-12T16:41:20.033Z,97812.84
2023-03-12T16:43:54.127Z,97816.22
2023-03-12T16:46:23.378Z,97819.09
2023-03-12T16:48:56.120Z,97819.84
2023-03-12T16:51:24.939Z,97824.98
2023-03-12T16:54:05.467Z,97823.41
2023-03-12T16:56:37.389Z,97827.41
2023-03-12T16:59:07.050Z,97832.75
2023-03-12T17:01:36.859Z,97837.46
2023-03-12T17:04:05.049Z,97837.38
2023-03-12T17:06:33.395Z,97839.67
2023-03-12T17:09:02.497Z,97843.20
2023-03-12T17:11:36.030Z,97847.09
2023-03-12T17:14:22.036Z,97850.45
2023-03-12T17:16:50.876Z,97858.63
2023-03-12T17:19:19.034Z,97861.94
2023-03-12T17:21:48.659Z,97866.64
2023-03-12T17:24:17.127Z,97868.35
2023-03-12T17:26:46.606Z,97871.27
2023-03-12T17:29:15.103Z,97872.25
2023-03-12T17:31:43.188Z,97878.46
2023-03-12T17:34:11.286Z,97880.67
2023-03-12T17:36:40.551Z,97882.88
2023-03-12T17:39:09.036Z,97892.27
2023-03-12T17:41:37.991Z,97893.55
2023-03-12T17:44:07.295Z,97895.44
2023-03-12T17:46:35.611Z,97902.82
2023-03-12T17:49:04.087Z,97907.66
2023-03-12T17:51:32.251Z,97912.34
2023-03-12T17:54:01.692Z,97913.63
2023-03-12T17:56:30.333Z,97916.90
2023-03-12T17:58:58.413Z,97923.63
2023-03-12T18:01:26.493Z,97931.23
2023-03-12T18:03:54.645Z,97933.88
2023-03-12T18:06:22.696Z,97938.06
2023-03-12T18:08:50.893Z,97939.98
2023-03-12T18:11:18.986Z,97945.54
2023-03-12T18:13:48.675Z,97949.13
2023-03-12T18:16:17.374Z,97951.87
2023-03-12T18:18:45.748Z,97955.65
2023-03-12T18:21:13.800Z,97957.23
2023-03-12T18:23:43.858Z,97961.98
2023-03-12T18:26:12.592Z,97965.15
2023-03-12T18:28:40.605Z,97969.95
2023-03-12T18:31:09.570Z,97971.95
2023-03-12T18:33:39.069Z,97972.04
2023-03-12T18:36:08.217Z,97974.61
2023-03-12T18:38:37.564Z,97977.00
2023-03-12T18:41:07.962Z,97975.48
2023-03-12T18:43:36.919Z,97979.94
2023-03-12T18:46:06.271Z,97985.70
2023-03-12T18:48:35.720Z,97986.06
2023-03-12T18:51:03.899Z,97994.22
2023-03-12T18:53:33.362Z,98000.95
2023-03-12T18:56:01.460Z,98007.42
2023-03-12T18:58:29.837Z,98007.79
2023-03-12T19:00:59.375Z,98008.46
2023-03-12T19:03:30.762Z,98013.02
2023-03-12T19:06:03.442Z,98017.20
2023-03-12T19:08:32.048Z,98022.52
2023-03-12T19:11:00.222Z,98024.52
2023-03-12T19:13:28.267Z,98027.64
2023-03-12T19:16:00.819Z,98030.61
2023-03-12T19:18:29.614Z,98026.95
2023-03-12T19:20:57.912Z,98029.08
2023-03-12T19:23:26.258Z,98031.30
2023-03-12T19:25:54.455Z,98032.46
2023-03-12T19:28:22.642Z,98037.06
2023-03-12T19:30:51.015Z,98036.34
2023-03-12T19:33:19.054Z,98035.55
2023-03-12T19:35:47.164Z,98039.56
2023-03-12T19:38:15.299Z,98043.19
2023-03-12T19:40:50.110Z,98041.79
2023-03-12T19:43:19.974Z,98043.80
2023-03-12T19:45:48.833Z,98043.19
2023-03-12T19:48:17.185Z,98050.81
2023-03-12T19:50:46.092Z,98050.85
2023-03-12T19:53:14.568Z,98050.35
2023-03-12T19:55:42.662Z,98051.30
2023-03-12T19:58:11.145Z,98057.51
2023-03-12T20:00:41.375Z,98057.78
2023-03-12T20:03:09.977Z,98059.05
2023-03-12T20:05:38.426Z,98058.08
2023-03-12T20:08:06.774Z,98052.63
2023-03-12T20:10:35.701Z,98050.47
2023-03-12T20:13:04.073Z,98054.73
2023-03-12T20:15:32.127Z,98056.20
2023-03-12T20:18:00.531Z,98054.33
2023-03-12T20:20:28.966Z,98054.23
2023-03-12T20:22:57.679Z,98056.40
2023-03-12T20:25:25.807Z,98053.02
2023-03-12T20:27:53.836Z,98058.55
2023-03-12T20:30:21.918Z,98062.43
2023-03-12T20:32:49.987Z,98064.39
2023-03-12T20:35:18.312Z,98067.52
2023-03-12T20:37:46.614Z,98069.00
2023-03-12T20:40:14.986Z,98066.20
2023-03-12T20:42:43.568Z,98069.05
2023-03-12T20:45:12.016Z,98071.17
2023-03-12T20:47:40.463Z,98069.13
2023-03-12T20:50:11.148Z,98068.50
2023-03-12T20:52:39.336Z,98073.09
2023-03-12T20:55:08.226Z,98075.95
2023-03-12T20:57:36.287Z,98077.81
2023-03-12T21:00:05.648Z,98074.60
2023-03-12T21:02:34.732Z,98079.17
2023-03-12T21:05:03.064Z,98087.02
2023-03-12T21:07:31.205Z,98090.98
2023-03-12T21:09:59.424Z,98092.45
2023-03-12T21:12:27.674Z,98096.47
2023-03-12T21:14:55.671Z,98097.48
2023-03-12T21:17:23.732Z,98088.22
2023-03-12T21:19:51.903Z,98087.73
2023-03-12T21:22:19.973Z,98086.67
2023-03-12T21:24:48.558Z,98091.41
2023-03-12T21:27:16.646Z,98095.02
2023-03-12T21:29:44.797Z,98098.98
2023-03-12T21:32:12.977Z,98100.77
2023-03-12T21:34:41.007Z,98096.61
2023-03-12T21:37:09.288Z,98092.34
2023-03-12T21:39:37.591Z,98094.87
2023-03-12T21:42:05.867Z,98094.64
2023-03-12T21:44:38.261Z,98101.90
2023-03-12T21:47:07.232Z,98103.94
2023-03-12T21:49:36.134Z,98105.53
2023-03-12T21:52:05.416Z,98104.45
2023-03-12T21:54:35.785Z,98103.17
2023-03-12T21:57:05.146Z,98104.45
2023-03-12T21:59:33.027Z,98103.25
2023-03-12T22:02:01.395Z,98109.11
2023-03-12T22:04:30.262Z,98111.42
2023-03-12T22:06:58.474Z,98106.90
2023-03-12T22:09:26.750Z,98100.73
2023-03-12T22:11:55.306Z,98104.00
2023-03-12T22:14:24.787Z,98103.98
2023-03-12T22:16:52.903Z,98107.67
2023-03-12T22:19:21.678Z,98109.98
2023-03-12T22:21:49.970Z,98110.69
2023-03-12T22:24:18.524Z,98110.21
2023-03-12T22:26:47.208Z,98116.13
2023-03-12T22:29:15.371Z,98114.30
2023-03-12T22:31:43.593Z,98120.41
2023-03-12T22:34:12.228Z,98122.82
2023-03-12T22:36:40.514Z,98114.33
2023-03-12T22:39:09.143Z,98116.17
2023-03-12T22:41:37.704Z,98114.54
2023-03-12T22:44:07.568Z,98109.30
2023-03-12T22:46:36.478Z,98102.92
2023-03-12T22:49:05.229Z,98106.64
2023-03-12T22:51:33.957Z,98108.11
2023-03-12T22:54:02.357Z,98109.09
2023-03-12T22:56:30.712Z,98113.14
2023-03-12T22:58:59.391Z,98113.61
2023-03-12T23:01:27.710Z,98111.55
2023-03-12T23:03:56.167Z,98109.25
2023-03-12T23:06:27.323Z,98116.19
2023-03-12T23:08:56.273Z,98120.92
2023-03-12T23:11:26.993Z,98123.70
2023-03-12T23:13:56.112Z,98127.53
2023-03-12T23:16:26.149Z,98124.45
2023-03-12T23:18:56.515Z,98122.17
2023-03-12T23:21:26.051Z,98116.48
2023-03-12T23:23:54.528Z,98118.06
2023-03-12T23:26:26.769Z,98123.79
2023-03-12T23:28:57.214Z,98135.21
2023-03-12T23:31:27.932Z,98141.89
2023-03-12T23:33:58.657Z,98150.39
2023-03-12T23:36:27.495Z,98148.31
2023-03-12T23:38:55.643Z,98143.84
2023-03-12T23:41:31.517Z,98140.66
2023-03-12T23:44:00.489Z,98147.02
2023-03-12T23:46:29.096Z,98154.02
2023-03-12T23:48:58.066Z,98156.59
2023-03-12T23:51:32.310Z,98157.30
2023-03-12T23:54:05.486Z,98155.45
2023-03-12T23:56:41.392Z,98150.84
2023-03-12T23:59:11.142Z,98149.40
